Portada
METAR-TAF:

METAR-TAF

Aeropuertos :

Aeropuerto Internacional Gobernador Francisco Gabrielli

Mendoza, Argentina

latitud: 32-50S, longitud: 068-47W, altitud: 705 m

Observación

El informe se hizo hace 41 minutos, a las 09:00 UTC
Viento calma
Temperatura 12°C
Humedad 88%
Presión 1011 hPa
Visibilidad 10 km o más
sin nubes por debajo de 1500 m y sin presencia de cumulonimbus.

METAR: SAME 150900Z 00000KT CAVOK 12/10 Q1011

Hora: 06:41 (09:41 UTC)

Pronóstico

Pronóstico válido del 15 a las 06 UTC al 16 a las 06 UTC
Viento 10 kt del noreste
Visibilidad 10 km o más
Escasas nubes a una altura de 4000 ft

TAF: SAME 1506/1606 05010KT 9999 FEW040 TN14/1520Z TX29/1520Z

Observaciones y pronósticos meteorológicos de más de 4000 aeropuertos (mensajes METAR y TAF).

Los puntos amarillos y rojos representan las estaciones disponibles.

Ponga el ratón en el punto deseado para ver el nombre de la estación.

Haga clic para ver las observaciones y los pronósticos meteorológicos.

Para cambiar el mapa : haga clic en los botones verdes con una cruz de color negro para hacer un zoom, en el botón verde con un guión para alejar o en las flechas verdes para mapas adyacentes.


METAR-TAF: